Latest Weather Observations for Melville Water

IDW60801

Issued at 8:33 am WST Monday 19 April 2021 (issued every 10 minutes, with the page automatically refreshed every 10 minutes)

About weather observations | Map of weather stations | Latest weather observations for WA | Other Formats
Station Details ID: 009091 Name: INNER DOLPHIN PYLON Lat: -31.99 Lon: 115.83 Height: 0.0 m
Data from the previous 72 hours. | See also: Recent months at Melville Water
Date/Time
WST
Temp
°C
App
Temp
°C
Dew
Point
°C
Rel
Hum
%
Delta-T
°C
Wind Press
QNH
hPa
Press
MSL
hPa
Rain since
9am
mm
Dir  Spd
km/h
Gust
km/h
Spd
kts
Gust
kts
19/08:30am - - - - - ESE 7 9 4 5 - - -
19/08:00am - - - - - ESE 6 7 3 4 - - -
19/07:30am - - - - - ESE 9 11 5 6 - - -
19/07:00am - - - - - SE 11 15 6 8 - - -
19/06:30am - - - - - SE 13 19 7 10 - - -
19/06:00am - - - - - SSE 13 17 7 9 - - -
19/05:30am - - - - - SSE 11 13 6 7 - - -
19/05:00am - - - - - SSE 11 15 6 8 - - -
19/04:30am - - - - - S 13 15 7 8 - - -
19/04:00am - - - - - S 11 15 6 8 - - -
19/03:30am - - - - - S 9 13 5 7 - - -
19/03:00am - - - - - S 11 15 6 8 - - -
19/02:30am - - - - - SE 13 19 7 10 - - -
19/02:00am - - - - - SSE 17 22 9 12 - - -
19/01:30am - - - - - S 11 15 6 8 - - -
19/01:00am - - - - - S 9 11 5 6 - - -
19/12:30am - - - - - SSE 9 13 5 7 - - -
19/12:00am - - - - - S 9 11 5 6 - - -
 
Date/Time
WST
Temp
°C
App
Temp
°C
Dew
Point
°C
Rel
Hum
%
Delta-T
°C
Wind Press
QNH
hPa
Press
MSL
hPa
Rain since
9am
mm
Dir  Spd
km/h
Gust
km/h
Spd
kts
Gust
kts
18/11:30pm - - - - - S 13 20 7 11 - - -
18/11:00pm - - - - - S 17 22 9 12 - - -
18/10:30pm - - - - - SSE 17 20 9 11 - - -
18/10:00pm - - - - - S 19 24 10 13 - - -
18/09:30pm - - - - - S 20 26 11 14 - - -
18/09:00pm - - - - - S 11 15 6 8 - - -
18/08:30pm - - - - - SSE 9 17 5 9 - - -
18/08:00pm - - - - - S 17 20 9 11 - - -
18/07:30pm - - - - - S 11 15 6 8 - - -
18/07:00pm - - - - - SSW 17 20 9 11 - - -
18/06:30pm - - - - - SSW 19 22 10 12 - - -
18/06:00pm - - - - - SSW 28 33 15 18 - - -
18/05:30pm - - - - - SSW 28 33 15 18 - - -
18/05:00pm - - - - - SSW 28 33 15 18 - - -
18/04:30pm - - - - - SSW 28 35 15 19 - - -
18/04:00pm - - - - - SSW 26 32 14 17 - - -
18/03:30pm - - - - - SW 22 30 12 16 - - -
18/03:00pm - - - - - SW 24 28 13 15 - - -
18/02:30pm - - - - - SW 20 24 11 13 - - -
18/02:00pm - - - - - SSW 4 7 2 4 - - -
18/01:30pm - - - - - NNE 4 6 2 3 - - -
18/01:00pm - - - - - S 6 11 3 6 - - -
18/12:30pm - - - - - SW 4 6 2 3 - - -
18/12:00pm - - - - - WNW 2 4 1 2 - - -
18/11:30am - - - - - W 2 6 1 3 - - -
18/11:00am - - - - - NE 4 7 2 4 - - -
18/10:30am - - - - - CALM 0 4 0 2 - - -
18/10:00am - - - - - NE 2 2 1 1 - - -
18/09:30am - - - - - ENE 6 7 3 4 - - -
18/09:00am - - - - - E 2 4 1 2 - - -
18/08:30am - - - - - SSE 2 6 1 3 - - -
18/08:00am - - - - - E 4 7 2 4 - - -
18/07:30am - - - - - ENE 7 9 4 5 - - -
18/07:00am - - - - - ENE 7 7 4 4 - - -
18/06:30am - - - - - E 6 7 3 4 - - -
18/06:00am - - - - - ENE 7 11 4 6 - - -
18/05:30am - - - - - ESE 7 9 4 5 - - -
18/05:00am - - - - - E 6 7 3 4 - - -
18/04:30am - - - - - E 7 9 4 5 - - -
18/04:00am - - - - - ENE 9 13 5 7 - - -
18/03:30am - - - - - ESE 7 9 4 5 - - -
18/03:00am - - - - - SE 6 6 3 3 - - -
18/02:30am - - - - - SE 6 7 3 4 - - -
18/02:00am - - - - - SE 6 6 3 3 - - -
18/01:30am - - - - - ESE 6 7 3 4 - - -
18/01:00am - - - - - ESE 7 7 4 4 - - -
18/12:30am - - - - - ESE 6 7 3 4 - - -
18/12:00am - - - - - ESE 6 7 3 4 - - -
 
Date/Time
WST
Temp
°C
App
Temp
°C
Dew
Point
°C
Rel
Hum
%
Delta-T
°C
Wind Press
QNH
hPa
Press
MSL
hPa
Rain since
9am
mm
Dir  Spd
km/h
Gust
km/h
Spd
kts
Gust
kts
17/11:30pm - - - - - SE 6 6 3 3 - - -
17/11:00pm - - - - - SE 4 4 2 2 - - -
17/10:30pm - - - - - SSE 4 6 2 3 - - -
17/10:00pm - - - - - SSE 6 6 3 3 - - -
17/09:30pm - - - - - S 6 11 3 6 - - -
17/09:00pm - - - - - S 4 7 2 4 - - -
17/08:30pm - - - - - SSE 7 9 4 5 - - -
17/08:00pm - - - - - SSE 11 15 6 8 - - -
17/07:30pm - - - - - S 13 19 7 10 - - -
17/07:00pm - - - - - S 11 13 6 7 - - -
17/06:30pm - - - - - SSW 11 15 6 8 - - -
17/06:00pm - - - - - SSW 15 19 8 10 - - -
17/05:30pm - - - - - ESE 15 19 8 10 - - -
17/05:00pm - - - - - ESE 20 26 11 14 - - -
17/04:30pm - - - - - E 6 9 3 5 - - -
17/04:00pm - - - - - ESE 9 17 5 9 - - -
17/03:30pm - - - - - SSE 15 22 8 12 - - -
17/03:00pm - - - - - ESE 13 20 7 11 - - -
17/02:30pm - - - - - ESE 7 13 4 7 - - -
17/02:00pm - - - - - WSW 2 6 1 3 - - -
17/01:30pm - - - - - W 4 6 2 3 - - -
17/01:00pm - - - - - NNE 6 11 3 6 - - -
17/12:30pm - - - - - NE 11 17 6 9 - - -
17/12:00pm - - - - - NE 11 15 6 8 - - -
17/11:30am - - - - - NE 15 19 8 10 - - -
17/11:00am - - - - - ENE 9 13 5 7 - - -
17/10:30am - - - - - ENE 13 19 7 10 - - -
17/10:00am - - - - - ENE 15 19 8 10 - - -
17/09:30am - - - - - ENE 17 24 9 13 - - -
17/09:00am - - - - - ENE 22 32 12 17 - - -
17/08:30am - - - - - ENE 20 26 11 14 - - -
17/08:00am - - - - - E 7 9 4 5 - - -
17/07:30am - - - - - E 9 11 5 6 - - -
17/07:00am - - - - - ESE 11 15 6 8 - - -
17/06:30am - - - - - ESE 15 19 8 10 - - -
17/06:00am - - - - - ESE 15 19 8 10 - - -
17/05:30am - - - - - ESE 15 19 8 10 - - -
17/05:00am - - - - - ESE 11 13 6 7 - - -
17/04:30am - - - - - ESE 13 17 7 9 - - -
17/04:00am - - - - - SE 11 13 6 7 - - -
17/03:30am - - - - - E 9 13 5 7 - - -
17/03:00am - - - - - ESE 13 15 7 8 - - -
17/02:30am - - - - - ESE 11 15 6 8 - - -
17/02:00am - - - - - E 15 19 8 10 - - -
17/01:30am - - - - - E 19 20 10 11 - - -
17/01:00am - - - - - E 15 20 8 11 - - -
17/12:30am - - - - - E 11 13 6 7 - - -
17/12:00am - - - - - E 11 15 6 8 - - -
 
Date/Time
WST
Temp
°C
App
Temp
°C
Dew
Point
°C
Rel
Hum
%
Delta-T
°C
Wind Press
QNH
hPa
Press
MSL
hPa
Rain since
9am
mm
Dir  Spd
km/h
Gust
km/h
Spd
kts
Gust
kts
16/11:30pm - - - - - E 13 19 7 10 - - -
16/11:00pm - - - - - E 22 28 12 15 - - -
16/10:30pm - - - - - E 20 30 11 16 - - -
16/10:00pm - - - - - E 13 19 7 10 - - -
16/09:30pm - - - - - ESE 11 15 6 8 - - -
16/09:00pm - - - - - E 7 7 4 4 - - -
16/08:30pm - - - - - SE 11 13 6 7 - - -
16/08:00pm - - - - - SE 11 13 6 7 - - -
16/07:30pm - - - - - SE 13 15 7 8 - - -
16/07:00pm - - - - - SE 13 15 7 8 - - -
16/06:30pm - - - - - SSE 11 13 6 7 - - -
16/06:00pm - - - - - SSE 11 17 6 9 - - -
16/05:30pm - - - - - SE 15 19 8 10 - - -
16/05:00pm - - - - - SSE 11 17 6 9 - - -
16/04:30pm - - - - - SE 13 19 7 10 - - -
16/04:00pm - - - - - S 6 9 3 5 - - -
16/03:30pm - - - - - S 7 15 4 8 - - -
16/03:00pm - - - - - SE 13 20 7 11 - - -
16/02:30pm - - - - - ESE 9 13 5 7 - - -
16/02:00pm - - - - - ESE 13 19 7 10 - - -
16/01:30pm - - - - - E 15 20 8 11 - - -
16/01:00pm - - - - - E 13 19 7 10 - - -
16/12:30pm - - - - - ENE 13 17 7 9 - - -
16/12:00pm - - - - - E 15 24 8 13 - - -
16/11:30am - - - - - E 20 28 11 15 - - -
16/11:00am - - - - - E 20 26 11 14 - - -
16/10:30am - - - - - E 20 28 11 15 - - -
16/10:00am - - - - - E 22 28 12 15 - - -
16/09:30am - - - - - E 20 26 11 14 - - -
16/09:00am - - - - - ENE 20 26 11 14 - - -

Other formats

Comma delimited format used in spreadsheet applications
http://www.bom.gov.au/fwo/IDW60801/IDW60801.95620.axf

JavaScript Object Notation format (JSON) in row-major order
http://www.bom.gov.au/fwo/IDW60801/IDW60801.95620.json

Data quality

Most of these data are generated automatically and are frequently updated. Quality checks on data are not normally performed. It is possible for incorrect values to appear. Refer to information at About Latest Weather Observations and please check the disclaimer before using these data.